createdAt,value
2023-03-27T00:02:03.161Z,97608.34
2023-03-27T00:04:34.117Z,97626.91
2023-03-27T00:07:35.948Z,97625.81
2023-03-27T00:10:08.217Z,97634.27
2023-03-27T00:12:40.477Z,97654.73
2023-03-27T00:15:14.020Z,97670.27
2023-03-27T00:17:45.723Z,97669.72
2023-03-27T00:20:28.036Z,97675.44
2023-03-27T00:22:58.175Z,97674.08
2023-03-27T00:25:29.885Z,97686.34
2023-03-27T00:28:00.140Z,97682.56
2023-03-27T00:30:30.830Z,97684.44
2023-03-27T00:33:01.184Z,97693.97
2023-03-27T00:35:36.252Z,97691.25
2023-03-27T00:38:06.439Z,97694.82
2023-03-27T00:40:36.529Z,97678.33
2023-03-27T00:43:23.173Z,97698.91
2023-03-27T00:45:55.761Z,97690.20
2023-03-27T00:48:26.142Z,97712.53
2023-03-27T00:51:07.244Z,97713.89
2023-03-27T00:53:39.759Z,97713.59
2023-03-27T00:56:11.229Z,97721.77
2023-03-27T00:58:55.394Z,97716.23
2023-03-27T01:01:25.527Z,97721.73
2023-03-27T01:04:15.839Z,97726.36
2023-03-27T01:06:46.151Z,97738.34
2023-03-27T01:09:20.349Z,97740.77
2023-03-27T01:15:44.514Z,97744.81
2023-03-27T01:18:55.668Z,97749.98
2023-03-27T01:21:50.599Z,97751.07
2023-03-27T01:24:26.498Z,97757.58
2023-03-27T01:27:23.665Z,97764.66
2023-03-27T01:33:30.598Z,97788.02
2023-03-27T01:36:25.954Z,97803.00
2023-03-27T01:39:19.204Z,97804.31
2023-03-27T01:42:23.454Z,97807.31
2023-03-27T01:45:20.989Z,97812.45
2023-03-27T01:48:08.798Z,97817.08
2023-03-27T01:50:58.065Z,97819.22
2023-03-27T01:53:49.529Z,97825.20
2023-03-27T01:59:21.215Z,97831.97
2023-03-27T02:02:03.725Z,97844.49
2023-03-27T02:04:49.955Z,97845.00
2023-03-27T02:07:36.296Z,97853.44
2023-03-27T02:10:18.575Z,97838.23
2023-03-27T02:12:56.477Z,97850.80
2023-03-27T02:15:33.254Z,97864.52
2023-03-27T02:18:12.294Z,97858.97
2023-03-27T02:21:25.961Z,97872.14
2023-03-27T02:24:32.051Z,97872.64
2023-03-27T02:27:32.149Z,97868.28
2023-03-27T02:30:45.220Z,97851.05
2023-03-27T02:33:40.831Z,97857.05
2023-03-27T02:36:40.801Z,97896.78
2023-03-27T02:42:38.772Z,97906.36
2023-03-27T02:45:38.596Z,97917.16
2023-03-27T02:48:30.475Z,97913.33
2023-03-27T02:54:46.587Z,97930.23
2023-03-27T02:57:31.176Z,97942.10
2023-03-27T03:09:41.376Z,97959.16
2023-03-27T03:12:21.101Z,97965.95
2023-03-27T03:15:21.838Z,97965.95
2023-03-27T03:18:10.171Z,97965.63
2023-03-27T03:23:36.232Z,97976.19
2023-03-27T03:26:07.507Z,97985.41
2023-03-27T03:28:37.663Z,98001.73
2023-03-27T03:31:11.318Z,97997.09
2023-03-27T03:34:28.731Z,98002.48
2023-03-27T03:37:05.287Z,98011.19
2023-03-27T03:39:45.215Z,98021.23
2023-03-27T03:42:24.110Z,98018.45
2023-03-27T03:45:36.062Z,98030.95
2023-03-27T03:48:52.104Z,98035.52
2023-03-27T03:51:33.920Z,98040.70
2023-03-27T04:00:36.508Z,98049.83
2023-03-27T04:03:42.914Z,98056.35
2023-03-27T04:06:36.489Z,98058.77
2023-03-27T04:09:30.072Z,98060.91
2023-03-27T04:12:46.538Z,98059.23
2023-03-27T04:18:42.128Z,98058.90
2023-03-27T04:21:57.198Z,98060.20
2023-03-27T04:24:34.300Z,98066.69
2023-03-27T04:27:37.371Z,98068.81
2023-03-27T04:30:34.696Z,98064.66
2023-03-27T04:33:36.085Z,98059.98
2023-03-27T04:36:22.167Z,98056.67
2023-03-27T04:45:36.664Z,98066.06
2023-03-27T04:51:21.584Z,98071.92
2023-03-27T04:59:50.570Z,98053.61
2023-03-27T05:02:20.958Z,98049.75
2023-03-27T05:05:14.244Z,98042.35
2023-03-27T05:07:33.323Z,98046.69
2023-03-27T05:10:03.556Z,98027.87
2023-03-27T05:13:03.798Z,98025.88
2023-03-27T05:19:07.075Z,98013.92
2023-03-27T05:22:07.545Z,98008.95
2023-03-27T05:28:28.970Z,98000.96
2023-03-27T05:31:11.381Z,97999.54
2023-03-27T05:33:49.999Z,97996.47
2023-03-27T05:37:17.177Z,97989.08
2023-03-27T05:39:58.759Z,97983.89
2023-03-27T05:43:21.171Z,97992.81
2023-03-27T05:54:38.593Z,98026.06
2023-03-27T05:57:36.093Z,98024.36
2023-03-27T06:03:02.284Z,98031.02
2023-03-27T06:05:42.464Z,98047.05
2023-03-27T06:08:17.492Z,98058.38
2023-03-27T06:10:49.809Z,98062.69
2023-03-27T06:16:27.112Z,98071.97
2023-03-27T06:19:12.683Z,98066.09
2023-03-27T06:22:04.393Z,98065.98
2023-03-27T06:24:52.478Z,98065.91
2023-03-27T06:28:14.989Z,98059.66
2023-03-27T06:31:06.219Z,98061.80
2023-03-27T06:34:00.759Z,98071.25
2023-03-27T06:37:06.840Z,98085.27
2023-03-27T06:43:29.005Z,98092.52
2023-03-27T06:46:45.940Z,98092.16
2023-03-27T06:49:20.053Z,98094.52
2023-03-27T06:55:18.896Z,98097.70
2023-03-27T06:58:34.989Z,98090.30
2023-03-27T07:01:36.227Z,98088.63
2023-03-27T07:07:40.340Z,98091.52
2023-03-27T07:10:34.778Z,98086.01
2023-03-27T07:16:30.901Z,98089.72
2023-03-27T07:19:04.336Z,98097.80
2023-03-27T07:27:14.445Z,98091.32
2023-03-27T07:29:46.684Z,98104.36
2023-03-27T07:32:33.992Z,98098.86
2023-03-27T07:34:56.063Z,98112.15
2023-03-27T07:37:38.395Z,98099.07
2023-03-27T07:43:29.006Z,98085.95
2023-03-27T07:46:07.989Z,98074.80
2023-03-27T07:55:21.508Z,98088.77
2023-03-27T07:58:28.227Z,98090.88
2023-03-27T08:01:22.092Z,98075.86
2023-03-27T08:04:30.749Z,98073.06
2023-03-27T08:07:13.920Z,98069.75
2023-03-27T08:10:54.751Z,98064.02
2023-03-27T08:13:33.495Z,98066.95
2023-03-27T08:16:16.432Z,98065.23
2023-03-27T08:19:22.471Z,98061.08
2023-03-27T08:22:36.929Z,98058.08
2023-03-27T08:25:29.436Z,98048.80
2023-03-27T08:28:22.189Z,98047.97
2023-03-27T08:31:16.500Z,98040.78
2023-03-27T08:37:10.951Z,98031.42
2023-03-27T08:40:19.881Z,98017.95
2023-03-27T08:43:29.059Z,98028.88
2023-03-27T08:46:28.073Z,98021.27
2023-03-27T08:58:27.316Z,98016.19
2023-03-27T09:01:57.938Z,98026.06
2023-03-27T09:08:12.300Z,98031.49
2023-03-27T09:11:18.519Z,98039.19
2023-03-27T09:13:50.091Z,98025.01
2023-03-27T09:16:54.644Z,98016.79
2023-03-27T09:19:43.988Z,98015.36
2023-03-27T09:22:32.981Z,98016.95
2023-03-27T09:25:39.145Z,98017.16
2023-03-27T09:28:53.010Z,98013.88
2023-03-27T09:32:04.943Z,98007.02
2023-03-27T09:34:53.073Z,98002.87
2023-03-27T09:37:49.403Z,98002.55
2023-03-27T09:40:47.508Z,98010.09
2023-03-27T09:43:41.963Z,98013.55
2023-03-27T09:47:00.506Z,98020.55
2023-03-27T09:49:52.059Z,98031.31
2023-03-27T09:52:57.526Z,98033.44
2023-03-27T09:55:40.611Z,98021.13
2023-03-27T09:58:52.020Z,98041.91
2023-03-27T10:01:51.381Z,98051.11
2023-03-27T10:04:35.651Z,98057.06
2023-03-27T10:10:23.919Z,98068.56
2023-03-27T10:17:08.301Z,98078.22
2023-03-27T10:19:49.115Z,98077.06
2023-03-27T10:23:20.347Z,98068.17
2023-03-27T10:26:06.070Z,98079.08
2023-03-27T10:31:54.434Z,98079.76
2023-03-27T10:35:03.214Z,98094.67
2023-03-27T10:38:09.859Z,98096.77
2023-03-27T10:40:56.538Z,98070.16
2023-03-27T10:44:05.120Z,98097.17
2023-03-27T10:50:20.300Z,98100.50
2023-03-27T10:53:23.300Z,98108.22
2023-03-27T10:56:17.534Z,98120.50
2023-03-27T10:59:15.904Z,98123.86
2023-03-27T11:02:10.781Z,98123.86
2023-03-27T11:08:03.811Z,98125.48
2023-03-27T11:13:54.933Z,98136.24
2023-03-27T11:16:42.643Z,98130.91
2023-03-27T11:19:58.031Z,98131.44
2023-03-27T11:36:22.081Z,98137.95
2023-03-27T11:39:20.592Z,98135.77
2023-03-27T11:41:56.747Z,98139.39
2023-03-27T11:47:41.712Z,98141.37
2023-03-27T11:50:28.192Z,98146.51
2023-03-27T11:53:25.082Z,98141.98
2023-03-27T11:56:22.919Z,98137.77
2023-03-27T11:59:25.803Z,98149.31
2023-03-27T12:02:07.963Z,98148.33
2023-03-27T12:05:08.072Z,98151.13
2023-03-27T12:08:03.346Z,98163.50
2023-03-27T12:10:57.495Z,98168.48
2023-03-27T12:16:56.861Z,98169.05
2023-03-27T12:20:12.919Z,98169.91
2023-03-27T12:26:12.859Z,98152.60
2023-03-27T12:29:25.988Z,98182.73
2023-03-27T12:32:20.522Z,98183.47
2023-03-27T12:35:21.387Z,98193.67
2023-03-27T12:38:30.355Z,98198.73
2023-03-27T12:41:40.998Z,98205.67
2023-03-27T12:44:35.108Z,98214.52
2023-03-27T12:53:34.576Z,98227.63
2023-03-27T12:56:30.353Z,98236.69
2023-03-27T13:02:57.982Z,98250.30
2023-03-27T13:05:41.881Z,98265.85
2023-03-27T13:08:54.354Z,98280.34
2023-03-27T13:11:51.250Z,98282.28
2023-03-27T13:14:30.823Z,98284.57
2023-03-27T13:20:49.752Z,98287.49
2023-03-27T13:23:47.204Z,98286.98
2023-03-27T13:26:28.501Z,98300.16
2023-03-27T13:29:30.822Z,98298.19
2023-03-27T13:32:41.056Z,98299.98
2023-03-27T13:35:46.175Z,98298.70
2023-03-27T13:38:31.329Z,98307.55
2023-03-27T13:41:20.254Z,98310.09
2023-03-27T13:47:41.555Z,98324.91
2023-03-27T13:50:44.026Z,98329.89
2023-03-27T13:53:34.007Z,98332.98
2023-03-27T13:56:28.342Z,98331.12
2023-03-27T14:02:27.667Z,98341.69
2023-03-27T14:05:37.020Z,98336.53
2023-03-27T14:08:35.262Z,98325.80
2023-03-27T14:11:39.378Z,98341.44
2023-03-27T14:14:28.335Z,98352.86
2023-03-27T14:21:00.066Z,98351.19
2023-03-27T14:23:51.302Z,98354.05
2023-03-27T14:26:32.957Z,98362.73
2023-03-27T14:29:21.083Z,98360.27
2023-03-27T14:32:16.721Z,98364.02
2023-03-27T14:38:13.202Z,98363.45
2023-03-27T14:41:36.338Z,98371.36
2023-03-27T14:50:54.064Z,98369.54
2023-03-27T14:53:49.738Z,98366.38
2023-03-27T14:56:48.061Z,98332.75
2023-03-27T15:00:08.392Z,98357.61
2023-03-27T15:02:38.514Z,98349.45
2023-03-27T15:05:47.595Z,98347.27
2023-03-27T15:11:53.445Z,98359.05
2023-03-27T15:14:47.596Z,98367.37
2023-03-27T15:17:26.136Z,98372.48
2023-03-27T15:20:49.284Z,98378.70
2023-03-27T15:24:04.691Z,98388.72
2023-03-27T15:26:55.044Z,98395.02
2023-03-27T15:29:47.661Z,98381.92
2023-03-27T15:32:33.003Z,98368.86
2023-03-27T15:35:36.155Z,98374.62
2023-03-27T15:45:37.854Z,98344.63
2023-03-27T15:47:36.983Z,98346.28
2023-03-27T15:53:58.180Z,98341.99
2023-03-27T15:56:51.145Z,98348.79
2023-03-27T15:59:52.953Z,98361.85
2023-03-27T16:05:46.460Z,98363.95
2023-03-27T16:08:56.564Z,98358.14
2023-03-27T16:12:04.172Z,98360.33
2023-03-27T16:15:17.597Z,98362.83
2023-03-27T16:18:10.618Z,98360.11
2023-03-27T16:20:51.729Z,98355.79
2023-03-27T16:27:21.670Z,98349.38
2023-03-27T16:29:54.425Z,98360.41
2023-03-27T16:33:02.020Z,98352.56
2023-03-27T16:35:39.710Z,98346.80
2023-03-27T16:42:01.334Z,98352.78
2023-03-27T16:51:18.450Z,98350.59
2023-03-27T16:54:02.160Z,98356.78
2023-03-27T17:03:26.405Z,98344.55
2023-03-27T17:09:15.339Z,98344.47
2023-03-27T17:12:07.110Z,98345.83
2023-03-27T17:15:11.853Z,98340.68
2023-03-27T17:18:23.487Z,98347.19
2023-03-27T17:20:56.601Z,98349.08
2023-03-27T17:26:52.732Z,98338.49
2023-03-27T17:29:51.406Z,98342.28
2023-03-27T17:35:39.997Z,98323.86
2023-03-27T17:38:41.833Z,98328.98
2023-03-27T17:41:34.024Z,98322.50
2023-03-27T17:44:35.952Z,98327.62
2023-03-27T17:46:54.035Z,98327.08
2023-03-27T17:49:22.778Z,98325.44
2023-03-27T17:51:56.336Z,98330.66
2023-03-27T17:54:27.649Z,98334.41
2023-03-27T18:10:28.216Z,98332.99
2023-03-27T18:13:06.751Z,98335.03
2023-03-27T18:15:34.733Z,98335.24
2023-03-27T18:18:26.185Z,98336.59
2023-03-27T18:20:58.314Z,98326.26
2023-03-27T18:23:49.593Z,98318.09
2023-03-27T18:26:48.234Z,98319.78
2023-03-27T18:36:05.309Z,98302.75
2023-03-27T18:48:04.053Z,98290.30
2023-03-27T18:51:05.330Z,98285.25
2023-03-27T18:57:19.730Z,98274.59
2023-03-27T19:00:08.918Z,98254.13
2023-03-27T19:03:59.016Z,98260.60
2023-03-27T19:06:20.982Z,98252.23
2023-03-27T19:11:41.892Z,98239.45
2023-03-27T19:14:14.850Z,98235.09
2023-03-27T19:16:47.921Z,98228.29
2023-03-27T19:19:21.054Z,98229.94
2023-03-27T19:21:51.948Z,98227.00
2023-03-27T19:24:23.066Z,98208.47
2023-03-27T19:27:23.822Z,98208.47
2023-03-27T19:30:13.381Z,98217.23
2023-03-27T19:33:14.270Z,98208.54
2023-03-27T19:36:00.887Z,98202.38
2023-03-27T19:39:13.099Z,98203.88
2023-03-27T19:42:18.978Z,98222.45
2023-03-27T19:45:24.135Z,98217.84
2023-03-27T19:47:57.740Z,98216.27
2023-03-27T19:51:08.410Z,98210.28
2023-03-27T19:54:16.577Z,98199.94
2023-03-27T19:57:02.836Z,98207.03
2023-03-27T20:09:14.453Z,98196.44
2023-03-27T20:12:19.868Z,98190.78
2023-03-27T20:15:12.145Z,98184.80
2023-03-27T20:21:17.745Z,98169.91
2023-03-27T20:27:22.586Z,98158.81
2023-03-27T20:33:44.941Z,98155.02
2023-03-27T20:36:42.173Z,98142.23
2023-03-27T20:42:52.710Z,98096.88
2023-03-27T20:45:37.237Z,98126.27
2023-03-27T20:48:54.330Z,98123.04
2023-03-27T20:51:29.913Z,98118.42
2023-03-27T20:54:17.783Z,98120.39
2023-03-27T21:00:20.146Z,98101.09
2023-03-27T21:03:17.444Z,98104.95
2023-03-27T21:06:45.636Z,98102.77
2023-03-27T21:09:53.033Z,98096.00
2023-03-27T21:16:04.787Z,98087.20
2023-03-27T22:24:04.432Z,98020.73
2023-03-27T22:26:43.470Z,98014.33
2023-03-27T22:29:17.924Z,98016.03
2023-03-27T22:32:27.318Z,98004.70
2023-03-27T22:35:02.724Z,98005.06
2023-03-27T22:40:21.794Z,98000.25
2023-03-27T22:42:52.057Z,97996.76
2023-03-27T22:45:58.874Z,97999.77
2023-03-27T22:48:38.991Z,97985.93
2023-03-27T22:51:08.603Z,97978.64
2023-03-27T22:53:48.926Z,97977.05
2023-03-27T22:56:31.721Z,97978.98
2023-03-27T23:02:38.003Z,97972.38
2023-03-27T23:04:56.605Z,97970.41
2023-03-27T23:07:28.091Z,97973.47
2023-03-27T23:10:03.675Z,97970.20
2023-03-27T23:12:38.985Z,97969.72
2023-03-27T23:15:10.493Z,97965.95
2023-03-27T23:20:33.862Z,97963.24
2023-03-27T23:23:27.141Z,97957.56
2023-03-27T23:26:27.951Z,97955.12
2023-03-27T23:29:24.226Z,97961.70
2023-03-27T23:32:11.061Z,97969.38
2023-03-27T23:34:45.854Z,97982.77
2023-03-27T23:37:16.562Z,97984.67
2023-03-27T23:39:46.981Z,97988.50
2023-03-27T23:42:17.274Z,97990.14
2023-03-27T23:44:50.775Z,97989.09
2023-03-27T23:47:40.698Z,97993.23
2023-03-27T23:56:13.414Z,98000.38
